createdAt,value
2023-03-06T00:02:41.318Z,3.66
2023-03-06T00:05:30.794Z,3.65
2023-03-06T00:08:19.436Z,3.63
2023-03-06T00:11:08.332Z,3.62
2023-03-06T00:13:56.920Z,3.58
2023-03-06T00:16:47.732Z,3.57
2023-03-06T00:19:36.320Z,3.57
2023-03-06T00:22:25.924Z,3.48
2023-03-06T00:25:18.593Z,3.46
2023-03-06T00:28:07.518Z,3.49
2023-03-06T00:30:57.022Z,3.51
2023-03-06T00:33:46.956Z,3.46
2023-03-06T00:36:36.362Z,3.46
2023-03-06T00:39:25.009Z,3.48
2023-03-06T00:42:15.399Z,3.46
2023-03-06T00:45:04.581Z,3.49
2023-03-06T00:47:54.075Z,3.44
2023-03-06T00:50:44.066Z,3.42
2023-03-06T00:53:32.677Z,3.42
2023-03-06T00:56:21.776Z,3.45
2023-03-06T00:59:10.440Z,3.26
2023-03-06T01:01:59.557Z,3.26
2023-03-06T01:04:49.364Z,3.46
2023-03-06T01:07:40.180Z,3.44
2023-03-06T01:10:29.687Z,3.40
2023-03-06T01:13:18.487Z,3.36
2023-03-06T01:16:11.341Z,3.34
2023-03-06T01:19:00.505Z,3.33
2023-03-06T01:21:51.515Z,3.35
2023-03-06T01:24:41.590Z,3.31
2023-03-06T01:27:30.780Z,3.30
2023-03-06T01:30:19.857Z,3.29
2023-03-06T01:33:08.901Z,3.25
2023-03-06T01:35:57.548Z,3.30
2023-03-06T01:38:47.049Z,3.27
2023-03-06T01:41:38.283Z,3.32
2023-03-06T01:44:28.160Z,3.34
2023-03-06T01:47:16.745Z,3.38
2023-03-06T01:50:09.264Z,3.38
2023-03-06T01:53:00.684Z,3.39
2023-03-06T01:55:50.481Z,3.38
2023-03-06T01:58:43.621Z,3.32
2023-03-06T02:01:34.283Z,3.36
2023-03-06T02:04:23.015Z,3.23
2023-03-06T02:07:15.665Z,3.20
2023-03-06T02:10:05.476Z,3.18
2023-03-06T02:12:55.527Z,3.17
2023-03-06T02:15:45.561Z,3.09
2023-03-06T02:18:35.753Z,3.11
2023-03-06T02:21:26.622Z,3.06
2023-03-06T02:24:36.461Z,3.11
2023-03-06T02:27:28.241Z,3.15
2023-03-06T02:30:19.658Z,3.11
2023-03-06T02:33:09.235Z,3.10
2023-03-06T02:36:00.721Z,3.09
2023-03-06T02:38:52.753Z,3.05
2023-03-06T02:41:44.088Z,3.08
2023-03-06T02:44:36.020Z,3.12
2023-03-06T02:47:25.595Z,3.10
2023-03-06T02:50:14.278Z,3.12
2023-03-06T02:53:03.605Z,3.16
2023-03-06T02:55:53.378Z,3.17
2023-03-06T02:58:43.021Z,3.17
2023-03-06T03:01:33.403Z,3.20
2023-03-06T03:04:25.466Z,3.20
2023-03-06T03:07:14.507Z,3.21
2023-03-06T03:10:05.512Z,3.22
2023-03-06T03:12:54.528Z,3.21
2023-03-06T03:15:45.815Z,3.23
2023-03-06T03:18:36.412Z,3.22
2023-03-06T03:21:26.220Z,3.22
2023-03-06T03:24:17.015Z,3.21
2023-03-06T03:27:06.537Z,3.18
2023-03-06T03:29:58.690Z,3.25
2023-03-06T03:32:48.377Z,3.21
2023-03-06T03:35:38.966Z,3.21
2023-03-06T03:38:29.122Z,3.18
2023-03-06T03:41:17.969Z,3.14
2023-03-06T03:44:08.185Z,3.12
2023-03-06T03:46:57.020Z,3.09
2023-03-06T03:49:47.462Z,3.10
2023-03-06T03:52:37.673Z,3.10
2023-03-06T03:55:27.206Z,3.11
2023-03-06T03:58:15.960Z,3.02
2023-03-06T04:01:06.205Z,2.96
2023-03-06T04:03:54.980Z,3.02
2023-03-06T04:06:44.870Z,3.00
2023-03-06T04:09:35.758Z,2.94
2023-03-06T04:12:26.277Z,2.98
2023-03-06T04:15:15.079Z,2.98
2023-03-06T04:18:05.067Z,2.95
2023-03-06T04:20:54.717Z,2.92
2023-03-06T04:23:43.547Z,2.96
2023-03-06T04:26:33.550Z,2.92
2023-03-06T04:29:23.073Z,2.89
2023-03-06T04:32:12.025Z,2.84
2023-03-06T04:35:02.477Z,2.96
2023-03-06T04:37:56.929Z,3.00
2023-03-06T04:40:49.599Z,3.01
2023-03-06T04:43:40.033Z,2.98
2023-03-06T04:46:28.706Z,2.92
2023-03-06T04:49:18.443Z,2.90
2023-03-06T04:52:09.017Z,2.88
2023-03-06T04:54:57.679Z,2.81
2023-03-06T04:57:48.444Z,2.88
2023-03-06T05:00:38.919Z,2.91
2023-03-06T05:03:28.891Z,2.91
2023-03-06T05:06:17.493Z,2.89
2023-03-06T05:09:07.009Z,2.87
2023-03-06T05:11:55.786Z,2.80
2023-03-06T05:14:47.123Z,2.93
2023-03-06T05:17:38.514Z,2.90
2023-03-06T05:20:30.489Z,2.91
2023-03-06T05:23:20.442Z,2.90
2023-03-06T05:26:09.899Z,2.88
2023-03-06T05:29:01.653Z,2.79
2023-03-06T05:31:50.452Z,2.86
2023-03-06T05:34:42.359Z,2.85
2023-03-06T05:37:31.169Z,2.80
2023-03-06T05:40:21.017Z,2.69
2023-03-06T05:43:11.580Z,2.64
2023-03-06T05:46:04.062Z,2.76
2023-03-06T05:48:55.705Z,2.72
2023-03-06T05:51:45.649Z,2.65
2023-03-06T05:54:35.491Z,2.59
2023-03-06T05:57:25.720Z,2.58
2023-03-06T06:00:17.096Z,2.54
2023-03-06T06:03:07.612Z,2.58
2023-03-06T06:05:56.315Z,2.61
2023-03-06T06:08:47.941Z,2.64
2023-03-06T06:11:36.531Z,2.63
2023-03-06T06:14:25.716Z,2.62
2023-03-06T06:17:14.318Z,2.62
2023-03-06T06:20:04.018Z,2.64
2023-03-06T06:22:52.741Z,2.55
2023-03-06T06:25:43.839Z,2.59
2023-03-06T06:28:33.384Z,2.70
2023-03-06T06:31:22.525Z,2.72
2023-03-06T06:34:12.089Z,2.75
2023-03-06T06:37:02.984Z,2.72
2023-03-06T06:39:51.981Z,2.85
2023-03-06T06:42:42.555Z,2.81
2023-03-06T06:45:31.169Z,2.87
2023-03-06T06:48:20.332Z,2.93
2023-03-06T06:51:09.039Z,2.94
2023-03-06T06:53:58.306Z,2.97
2023-03-06T06:56:46.962Z,3.01
2023-03-06T06:59:36.996Z,3.02
2023-03-06T07:02:26.321Z,3.05
2023-03-06T07:05:15.103Z,3.02
2023-03-06T07:08:04.435Z,3.08
2023-03-06T07:10:53.235Z,3.10
2023-03-06T07:13:41.968Z,3.03
2023-03-06T07:16:32.424Z,3.07
2023-03-06T07:19:21.035Z,3.03
2023-03-06T07:22:10.619Z,2.98
2023-03-06T07:24:59.238Z,2.99
2023-03-06T07:27:53.641Z,3.04
2023-03-06T07:30:43.693Z,3.06
2023-03-06T07:33:33.683Z,3.11
2023-03-06T07:36:22.555Z,3.12
2023-03-06T07:39:12.230Z,3.05
2023-03-06T07:42:01.019Z,3.06
2023-03-06T07:44:49.779Z,3.08
2023-03-06T07:47:38.402Z,3.09
2023-03-06T07:50:29.932Z,3.12
2023-03-06T07:53:18.514Z,3.22
2023-03-06T07:56:09.487Z,3.33
2023-03-06T07:58:58.326Z,3.39
2023-03-06T08:01:47.768Z,3.44
2023-03-06T08:04:36.443Z,3.52
2023-03-06T08:07:26.414Z,3.57
2023-03-06T08:10:16.787Z,3.61
2023-03-06T08:13:05.965Z,3.81
2023-03-06T08:15:54.748Z,3.76
2023-03-06T08:18:46.074Z,3.76
2023-03-06T08:21:17.171Z,3.78
2023-03-06T08:23:47.885Z,3.84
2023-03-06T08:26:18.241Z,3.85
2023-03-06T08:28:47.630Z,3.86
2023-03-06T08:31:26.207Z,3.80
2023-03-06T08:33:56.072Z,3.86
2023-03-06T08:36:24.930Z,3.85
2023-03-06T08:38:55.169Z,3.85
2023-03-06T08:41:24.093Z,3.83
2023-03-06T08:43:54.526Z,3.85
2023-03-06T08:46:25.487Z,3.85
2023-03-06T08:48:55.007Z,3.88
2023-03-06T08:51:23.804Z,3.95
2023-03-06T08:53:54.174Z,3.90
2023-03-06T08:56:25.420Z,3.80
2023-03-06T08:58:55.220Z,3.90
2023-03-06T09:01:26.287Z,3.96
2023-03-06T09:03:55.931Z,3.99
2023-03-06T09:06:26.641Z,3.97
2023-03-06T09:08:56.724Z,4.01
2023-03-06T09:11:27.577Z,4.02
2023-03-06T09:13:56.521Z,4.05
2023-03-06T09:16:25.367Z,4.09
2023-03-06T09:18:54.771Z,4.21
2023-03-06T09:21:23.983Z,4.30
2023-03-06T09:23:52.498Z,4.32
2023-03-06T09:26:28.010Z,4.17
2023-03-06T09:29:02.220Z,4.34
2023-03-06T09:31:32.504Z,4.45
2023-03-06T09:34:00.832Z,4.45
2023-03-06T09:36:29.983Z,4.54
2023-03-06T09:38:58.442Z,4.60
2023-03-06T09:41:32.620Z,4.69
2023-03-06T09:44:09.079Z,4.78
2023-03-06T09:46:48.592Z,4.83
2023-03-06T09:49:39.215Z,4.89
2023-03-06T09:52:24.527Z,4.95
2023-03-06T09:54:56.498Z,4.96
2023-03-06T09:57:30.342Z,5.02
2023-03-06T10:00:03.992Z,5.06
2023-03-06T10:02:38.314Z,4.98
2023-03-06T10:05:13.915Z,5.09
2023-03-06T10:07:47.142Z,5.07
2023-03-06T10:10:21.822Z,4.94
2023-03-06T10:12:59.394Z,4.95
2023-03-06T10:15:33.677Z,4.84
2023-03-06T10:18:03.010Z,4.98
2023-03-06T10:20:38.337Z,4.97
2023-03-06T10:23:24.765Z,4.86
2023-03-06T10:26:00.395Z,4.85
2023-03-06T10:28:37.434Z,4.82
2023-03-06T10:31:13.166Z,4.86
2023-03-06T10:33:53.973Z,4.84
2023-03-06T10:36:27.349Z,4.86
2023-03-06T10:38:57.834Z,4.92
2023-03-06T10:41:28.590Z,4.94
2023-03-06T10:44:24.133Z,4.96
2023-03-06T10:46:55.424Z,4.93
2023-03-06T10:49:31.054Z,4.94
2023-03-06T10:52:03.494Z,4.81
2023-03-06T10:54:34.956Z,4.87
2023-03-06T10:57:23.387Z,4.82
2023-03-06T10:59:55.698Z,4.92
2023-03-06T11:02:34.533Z,4.86
2023-03-06T11:05:04.133Z,4.85
2023-03-06T11:07:34.641Z,4.84
2023-03-06T11:10:16.715Z,4.89
2023-03-06T11:12:58.218Z,4.96
2023-03-06T11:15:28.875Z,4.96
2023-03-06T11:18:01.912Z,5.04
2023-03-06T11:20:50.078Z,5.04
2023-03-06T11:23:22.925Z,4.87
2023-03-06T11:25:57.207Z,5.02
2023-03-06T11:28:30.266Z,4.43
2023-03-06T11:31:07.387Z,5.13
2023-03-06T11:33:41.531Z,4.72
2023-03-06T11:36:17.565Z,5.10
2023-03-06T11:38:50.214Z,5.06
2023-03-06T11:41:27.790Z,5.00
2023-03-06T11:44:02.717Z,5.05
2023-03-06T11:46:40.103Z,5.10
2023-03-06T11:49:17.821Z,5.18
2023-03-06T11:51:52.510Z,5.23
2023-03-06T11:54:22.218Z,5.26
2023-03-06T11:56:57.168Z,5.05
2023-03-06T11:59:43.481Z,5.19
2023-03-06T12:02:23.247Z,5.19
2023-03-06T12:05:02.594Z,5.19
2023-03-06T12:07:34.073Z,5.25
2023-03-06T12:10:16.042Z,5.24
2023-03-06T12:13:15.211Z,5.32
2023-03-06T12:16:02.739Z,5.30
2023-03-06T12:18:41.310Z,4.98
2023-03-06T12:21:21.638Z,5.36
2023-03-06T12:24:04.627Z,5.27
2023-03-06T12:26:49.076Z,5.33
2023-03-06T12:29:29.369Z,5.44
2023-03-06T12:32:15.209Z,5.43
2023-03-06T12:35:15.021Z,5.39
2023-03-06T12:37:55.025Z,5.15
2023-03-06T12:40:46.661Z,5.31
2023-03-06T12:43:43.424Z,5.33
2023-03-06T12:46:15.966Z,5.36
2023-03-06T12:48:49.204Z,5.49
2023-03-06T12:51:22.048Z,5.46
2023-03-06T12:53:52.517Z,5.66
2023-03-06T12:56:22.166Z,5.37
2023-03-06T12:58:53.556Z,5.63
2023-03-06T13:01:52.664Z,5.70
2023-03-06T13:04:36.736Z,5.75
2023-03-06T13:07:23.074Z,5.73
2023-03-06T13:10:08.863Z,5.87
2023-03-06T13:12:51.136Z,5.96
2023-03-06T13:15:40.760Z,6.24
2023-03-06T13:18:56.937Z,6.29
2023-03-06T13:21:48.619Z,6.73
2023-03-06T13:24:23.552Z,6.72
2023-03-06T13:27:00.142Z,7.19
2023-03-06T13:30:22.136Z,7.33
2023-03-06T13:32:53.215Z,7.36
2023-03-06T13:35:52.443Z,7.84
2023-03-06T13:38:36.088Z,8.35
2023-03-06T13:41:38.498Z,8.44
2023-03-06T13:44:45.960Z,8.32
2023-03-06T13:47:39.726Z,8.25
2023-03-06T13:50:33.698Z,8.16
2023-03-06T13:53:41.788Z,8.07
2023-03-06T13:56:26.482Z,7.68
2023-03-06T13:59:18.346Z,7.29
2023-03-06T14:01:57.505Z,6.94
2023-03-06T14:04:40.358Z,6.82
2023-03-06T14:07:21.096Z,6.81
2023-03-06T14:10:01.114Z,6.76
2023-03-06T14:12:34.810Z,6.69
2023-03-06T14:15:18.229Z,6.73
2023-03-06T14:17:55.548Z,6.85
2023-03-06T14:20:33.067Z,7.21
2023-03-06T14:23:24.101Z,7.74
2023-03-06T14:25:58.073Z,7.90
2023-03-06T14:28:29.552Z,8.10
2023-03-06T14:31:01.171Z,8.10
2023-03-06T14:33:38.258Z,7.94
2023-03-06T14:36:10.873Z,7.79
2023-03-06T14:38:46.845Z,7.63
2023-03-06T14:41:24.389Z,7.65
2023-03-06T14:43:53.965Z,7.27
2023-03-06T14:46:24.274Z,7.04
2023-03-06T14:48:54.548Z,6.93
2023-03-06T14:51:25.283Z,6.85
2023-03-06T14:53:55.650Z,6.79
2023-03-06T14:56:26.972Z,6.67
2023-03-06T14:58:58.921Z,6.54
2023-03-06T15:01:34.612Z,6.40
2023-03-06T15:04:07.086Z,6.31
2023-03-06T15:06:39.896Z,6.19
2023-03-06T15:09:16.420Z,6.12
2023-03-06T15:11:57.099Z,5.99
2023-03-06T15:14:36.153Z,5.88
2023-03-06T15:17:25.464Z,5.78
2023-03-06T15:19:55.568Z,5.74
2023-03-06T15:22:28.672Z,5.71
2023-03-06T15:25:18.688Z,5.61
2023-03-06T15:27:51.498Z,5.59
2023-03-06T15:30:28.602Z,5.45
2023-03-06T15:33:24.186Z,5.32
2023-03-06T15:35:55.266Z,5.18
2023-03-06T15:38:27.446Z,5.14
2023-03-06T15:40:58.301Z,5.14
2023-03-06T15:43:27.276Z,5.06
2023-03-06T15:46:00.294Z,5.12
2023-03-06T15:48:30.629Z,5.10
2023-03-06T15:51:00.324Z,5.06
2023-03-06T15:53:29.372Z,5.02
2023-03-06T15:56:00.648Z,5.05
2023-03-06T15:58:31.916Z,5.04
2023-03-06T16:01:00.486Z,5.04
2023-03-06T16:03:30.679Z,5.01
2023-03-06T16:05:59.136Z,4.94
2023-03-06T16:08:28.877Z,4.90
2023-03-06T16:10:57.257Z,4.83
2023-03-06T16:13:28.192Z,4.76
2023-03-06T16:15:56.901Z,4.75
2023-03-06T16:18:25.253Z,4.71
2023-03-06T16:23:41.673Z,4.64
2023-03-06T16:26:21.339Z,4.62
2023-03-06T16:28:49.674Z,4.63
2023-03-06T16:31:18.381Z,4.61
2023-03-06T16:33:46.803Z,4.61
2023-03-06T16:36:21.881Z,4.61
2023-03-06T16:38:50.553Z,4.59
2023-03-06T16:41:21.420Z,4.51
2023-03-06T16:43:50.428Z,4.51
2023-03-06T16:46:22.233Z,4.45
2023-03-06T16:48:50.672Z,4.43
2023-03-06T16:51:24.471Z,4.43
2023-03-06T16:53:52.781Z,4.39
2023-03-06T16:56:21.557Z,4.48
2023-03-06T16:58:50.320Z,4.46
2023-03-06T17:01:20.651Z,4.49
2023-03-06T17:03:49.567Z,4.52
2023-03-06T17:06:21.381Z,4.51
2023-03-06T17:08:51.807Z,4.50
2023-03-06T17:11:21.331Z,4.48
2023-03-06T17:13:50.182Z,4.51
2023-03-06T17:16:18.617Z,4.53
2023-03-06T17:18:47.940Z,4.50
2023-03-06T17:21:16.542Z,4.47
2023-03-06T17:23:46.394Z,4.49
2023-03-06T17:26:18.186Z,4.49
2023-03-06T17:28:47.391Z,4.46
2023-03-06T17:31:18.336Z,4.43
2023-03-06T17:33:47.272Z,4.41
2023-03-06T17:36:16.904Z,4.40
2023-03-06T17:38:48.288Z,4.37
2023-03-06T17:41:16.634Z,4.40
2023-03-06T17:43:45.360Z,4.41
2023-03-06T17:46:14.092Z,4.38
2023-03-06T17:48:43.743Z,4.39
2023-03-06T17:51:12.766Z,4.39
2023-03-06T17:53:42.060Z,4.37
2023-03-06T17:56:14.295Z,4.36
2023-03-06T17:58:43.650Z,4.31
2023-03-06T18:01:13.594Z,4.29
2023-03-06T18:03:44.876Z,4.28
2023-03-06T18:06:14.880Z,4.31
2023-03-06T18:08:43.539Z,4.32
2023-03-06T18:11:13.734Z,4.37
2023-03-06T18:13:46.751Z,4.39
2023-03-06T18:16:17.390Z,4.38
2023-03-06T18:18:46.641Z,4.37
2023-03-06T18:21:16.454Z,4.47
2023-03-06T18:23:44.836Z,4.48
2023-03-06T18:26:16.578Z,4.47
2023-03-06T18:28:46.560Z,4.41
2023-03-06T18:31:17.423Z,4.45
2023-03-06T18:33:45.780Z,4.45
2023-03-06T18:36:15.082Z,4.45
2023-03-06T18:38:46.075Z,4.37
2023-03-06T18:41:16.133Z,4.42
2023-03-06T18:43:45.049Z,4.40
2023-03-06T18:46:13.408Z,4.40
2023-03-06T18:48:42.263Z,4.37
2023-03-06T18:51:13.941Z,4.37
2023-03-06T18:53:43.313Z,4.36
2023-03-06T18:56:17.686Z,4.33
2023-03-06T18:58:47.136Z,4.33
2023-03-06T19:01:15.645Z,4.34
2023-03-06T19:03:44.542Z,4.33
2023-03-06T19:06:16.413Z,4.32
2023-03-06T19:08:45.765Z,4.34
2023-03-06T19:11:17.436Z,4.32
2023-03-06T19:13:46.886Z,4.34
2023-03-06T19:16:20.263Z,4.35
2023-03-06T19:18:48.660Z,4.38
2023-03-06T19:21:19.289Z,4.35
2023-03-06T19:23:48.791Z,4.36
2023-03-06T19:26:19.624Z,4.35
2023-03-06T19:28:50.177Z,4.36
2023-03-06T19:31:20.682Z,4.40
2023-03-06T19:33:50.368Z,4.41
2023-03-06T19:36:19.001Z,4.40
2023-03-06T19:38:50.338Z,4.36
2023-03-06T19:41:20.053Z,4.34
2023-03-06T19:43:52.630Z,4.32
2023-03-06T19:46:21.202Z,4.30
2023-03-06T19:48:54.905Z,4.25
2023-03-06T19:51:24.036Z,4.23
2023-03-06T19:53:52.803Z,4.21
2023-03-06T19:56:26.084Z,4.22
2023-03-06T19:58:55.286Z,4.21
2023-03-06T20:01:26.746Z,4.13
2023-03-06T20:03:58.548Z,4.17
2023-03-06T20:06:29.865Z,4.21
2023-03-06T20:08:59.467Z,4.21
2023-03-06T20:11:30.953Z,4.22
2023-03-06T20:14:01.416Z,4.22
2023-03-06T20:16:31.811Z,4.24
2023-03-06T20:19:02.156Z,4.24
2023-03-06T20:21:34.108Z,4.23
2023-03-06T20:24:03.031Z,4.24
2023-03-06T20:26:34.501Z,4.24
2023-03-06T20:29:03.975Z,4.25
2023-03-06T20:31:32.338Z,4.27
2023-03-06T20:34:01.332Z,4.27
2023-03-06T20:36:31.650Z,4.28
2023-03-06T20:39:02.060Z,4.27
2023-03-06T20:41:32.949Z,4.26
2023-03-06T20:44:03.535Z,4.25
2023-03-06T20:46:32.570Z,4.28
2023-03-06T20:49:01.010Z,4.29
2023-03-06T20:51:31.662Z,4.30
2023-03-06T20:54:02.287Z,4.29
2023-03-06T20:56:35.140Z,4.31
2023-03-06T20:59:04.618Z,4.31
2023-03-06T21:01:34.919Z,4.31
2023-03-06T21:04:05.613Z,4.31
2023-03-06T21:06:34.428Z,4.31
2023-03-06T21:09:04.854Z,4.31
2023-03-06T21:11:35.066Z,4.30
2023-03-06T21:14:03.682Z,4.27
2023-03-06T21:16:33.157Z,4.30
2023-03-06T21:19:02.401Z,4.30
2023-03-06T21:21:33.407Z,4.25
2023-03-06T21:24:02.568Z,4.21
2023-03-06T21:26:33.676Z,4.17
2023-03-06T21:29:04.981Z,4.19
2023-03-06T21:31:34.361Z,4.23
2023-03-06T21:34:05.307Z,4.22
2023-03-06T21:36:35.385Z,4.16
2023-03-06T21:39:06.610Z,4.21
2023-03-06T21:41:35.809Z,4.23
2023-03-06T21:44:06.668Z,4.24
2023-03-06T21:46:36.441Z,4.23
2023-03-06T21:49:06.069Z,4.24
2023-03-06T21:51:35.012Z,4.27
2023-03-06T21:54:04.176Z,4.26
2023-03-06T21:56:33.811Z,4.24
2023-03-06T21:59:02.536Z,4.22
2023-03-06T22:01:33.163Z,4.21
2023-03-06T22:04:01.596Z,4.17
2023-03-06T22:06:32.464Z,4.19
2023-03-06T22:09:01.288Z,4.20
2023-03-06T22:11:34.621Z,4.14
2023-03-06T22:14:03.126Z,4.13
2023-03-06T22:16:34.318Z,4.15
2023-03-06T22:19:02.704Z,4.17
2023-03-06T22:21:32.018Z,4.18
2023-03-06T22:24:00.682Z,4.20
2023-03-06T22:26:30.471Z,4.21
2023-03-06T22:28:58.836Z,4.20
2023-03-06T22:31:29.020Z,4.19
2023-03-06T22:34:01.583Z,4.21
2023-03-06T22:36:31.543Z,4.18
2023-03-06T22:39:03.408Z,3.70
2023-03-06T22:41:32.244Z,4.10
2023-03-06T22:44:03.239Z,4.18
2023-03-06T22:46:32.992Z,4.18
2023-03-06T22:49:03.284Z,4.12
2023-03-06T22:51:31.800Z,4.03
2023-03-06T22:54:00.669Z,4.08
2023-03-06T22:56:29.220Z,4.05
2023-03-06T22:58:58.578Z,4.03
2023-03-06T23:01:28.919Z,3.92
2023-03-06T23:03:59.344Z,3.87
2023-03-06T23:06:31.139Z,3.75
2023-03-06T23:09:01.284Z,3.76
2023-03-06T23:11:30.653Z,3.69
2023-03-06T23:14:20.089Z,3.63
2023-03-06T23:17:06.979Z,3.66
2023-03-06T23:19:54.664Z,3.66
2023-03-06T23:22:42.901Z,3.67
2023-03-06T23:25:29.960Z,3.64
2023-03-06T23:27:59.043Z,3.66
2023-03-06T23:30:27.456Z,3.70
2023-03-06T23:32:56.730Z,3.74
2023-03-06T23:35:25.072Z,3.78
2023-03-06T23:37:55.406Z,3.76
2023-03-06T23:40:24.115Z,3.74
2023-03-06T23:42:52.872Z,3.76
2023-03-06T23:45:21.899Z,3.76
2023-03-06T23:47:50.692Z,3.80
2023-03-06T23:50:19.272Z,3.80
2023-03-06T23:52:47.656Z,3.83
2023-03-06T23:55:18.464Z,3.86
2023-03-06T23:57:47.678Z,3.89
